Time;durP1;ratioP1;P1;durP2;ratioP2;P2;SDS_P1;SDS_P2;PMS_P1;PMS_P2;Temp;Humidity;BMP_temperature;BMP_pressure;BME280_temperature;BME280_humidity;BME280_pressure;Samples;Min_cycle;Max_cycle;Signal;HPM_P1;HPM_P2
2022/09/27 00:00:46;;;;;;;3.08;1.73;;;;;;;15.82;80.05;97501.00;5088855;28;20127;-52
2022/09/27 00:03:34;;;;;;;3.35;2.45;;;;;;;16.06;81.70;97498.47;5094797;28;20042;-50
2022/09/27 00:06:23;;;;;;;4.18;2.53;;;;;;;16.15;78.33;97496.63;5090371;28;20151;-50
2022/09/27 00:09:08;;;;;;;3.92;2.30;;;;;;;16.04;80.19;97490.72;5089033;28;20391;-47
2022/09/27 00:11:53;;;;;;;4.82;2.65;;;;;;;15.78;79.01;97483.88;5092514;28;20036;-54
2022/09/27 00:14:38;;;;;;;3.42;2.65;;;;;;;14.59;84.00;97488.53;5090444;28;20036;-49
2022/09/27 00:17:23;;;;;;;5.03;3.20;;;;;;;14.93;82.24;97478.06;5089007;28;20119;-53
2022/09/27 00:20:08;;;;;;;5.40;2.50;;;;;;;14.85;83.02;97482.31;5099195;28;20043;-48
2022/09/27 00:22:53;;;;;;;3.17;2.22;;;;;;;15.52;84.05;97479.66;5090968;28;20036;-49
2022/09/27 00:25:37;;;;;;;2.92;1.88;;;;;;;16.27;79.84;97474.13;5089895;28;20040;-47
2022/09/27 00:28:22;;;;;;;2.78;1.73;;;;;;;16.11;79.40;97470.53;5088328;28;20071;-50
2022/09/27 00:31:28;;;;;;;2.42;1.90;;;;;;;16.39;76.42;97456.03;5092259;28;20044;-51
2022/09/27 00:34:22;;;;;;;2.85;1.80;;;;;;;15.55;78.18;97457.38;5098269;28;20039;-50
2022/09/27 00:37:08;;;;;;;4.05;2.47;;;;;;;14.66;80.49;97465.81;5091615;28;20104;-51
2022/09/27 00:39:52;;;;;;;5.05;2.50;;;;;;;14.66;82.86;97470.25;5092088;28;20052;-49
2022/09/27 00:42:37;;;;;;;3.55;2.20;;;;;;;14.56;86.20;97464.34;5103585;27;21250;-49
2022/09/27 00:45:22;;;;;;;6.00;3.45;;;;;;;14.79;81.23;97459.22;5088978;28;20059;-51
2022/09/27 00:48:06;;;;;;;4.28;3.00;;;;;;;15.04;82.31;97456.63;5066018;28;20051;-53
2022/09/27 00:50:55;;;;;;;4.30;2.88;;;;;;;14.62;81.45;97455.78;5093487;28;20454;-53
2022/09/27 00:53:48;;;;;;;5.57;2.72;;;;;;;14.64;85.63;97451.16;5102916;27;20433;-51
2022/09/27 00:56:33;;;;;;;4.30;2.63;;;;;;;15.10;81.85;97448.06;5088218;28;20121;-54
2022/09/27 00:59:57;;;;;;;4.53;2.90;;;;;;;14.71;82.59;97441.59;5089150;28;20892;-48
2022/09/27 01:02:47;;;;;;;4.88;3.63;;;;;;;13.81;86.94;97438.63;5082276;28;20048;-46
2022/09/27 01:05:33;;;;;;;6.80;4.45;;;;;;;13.44;87.80;97430.03;5083674;28;20032;-51
2022/09/27 01:08:18;;;;;;;9.63;4.90;;;;;;;13.47;90.18;97437.63;5072520;28;20036;-53
2022/09/27 01:11:43;;;;;;;5.97;4.05;;;;;;;13.39;89.85;97429.69;5068495;28;20063;-56
2022/09/27 01:14:51;;;;;;;8.13;4.50;;;;;;;13.03;93.30;97420.09;5069725;28;20044;-48
2022/09/27 01:17:54;;;;;;;4.93;3.58;;;;;;;13.65;94.98;97416.53;5083573;28;20043;-49
2022/09/27 01:21:00;;;;;;;5.13;3.70;;;;;;;13.99;87.86;97404.28;5079585;28;20169;-48
2022/09/27 01:23:59;;;;;;;5.35;3.63;;;;;;;14.22;92.47;97403.69;5077321;28;20040;-51
2022/09/27 01:27:14;;;;;;;5.88;4.38;;;;;;;14.40;87.22;97397.44;5084219;28;20146;-52
2022/09/27 01:30:15;;;;;;;5.20;4.30;;;;;;;14.85;87.88;97399.81;5085290;28;20040;-51
2022/09/27 01:33:45;;;;;;;4.65;3.53;;;;;;;14.63;86.20;97399.44;5068831;28;20071;-49
2022/09/27 01:36:49;;;;;;;5.97;3.22;;;;;;;15.21;85.72;97388.03;5033764;28;20500;-54
2022/09/27 01:39:50;;;;;;;7.28;4.40;;;;;;;14.70;85.04;97386.44;5040700;28;20040;-47
2022/09/27 01:43:01;;;;;;;5.82;3.50;;;;;;;14.87;82.40;97381.97;5041176;28;20079;-48
2022/09/27 01:46:28;;;;;;;4.63;3.47;;;;;;;14.82;85.86;97368.50;5031230;28;20548;-47
2022/09/27 01:49:56;;;;;;;6.07;4.43;;;;;;;14.35;85.82;97365.50;4999133;28;20121;-49
2022/09/27 01:52:52;;;;;;;4.90;3.03;;;;;;;14.54;88.12;97359.91;5006527;28;20397;-47
2022/09/27 01:55:39;;;;;;;4.03;3.10;;;;;;;14.75;86.96;97357.75;4996659;28;20038;-54
2022/09/27 01:58:59;;;;;;;5.22;3.60;;;;;;;14.82;83.81;97358.75;5010130;28;20054;-49
2022/09/27 02:01:50;;;;;;;9.80;5.05;;;;;;;13.60;91.62;97355.66;5013752;28;20042;-52
2022/09/27 02:04:37;;;;;;;6.65;4.80;;;;;;;13.67;91.23;97347.94;5011524;28;20038;-54
2022/09/27 02:07:52;;;;;;;7.13;3.92;;;;;;;14.03;91.03;97346.88;5052183;28;20495;-50
2022/09/27 02:10:42;;;;;;;5.22;4.15;;;;;;;13.47;90.93;97344.72;5086725;28;20163;-49
2022/09/27 02:13:40;;;;;;;7.38;5.07;;;;;;;13.71;90.45;97335.31;5087869;28;20487;-51
2022/09/27 02:17:08;;;;;;;6.55;4.57;;;;;;;13.38;93.94;97330.72;5085993;28;20075;-48
2022/09/27 02:20:16;;;;;;;6.22;4.95;;;;;;;13.30;93.91;97339.41;5087157;28;20479;-47
2022/09/27 02:23:07;;;;;;;5.53;4.20;;;;;;;13.37;90.92;97334.31;5091485;28;20127;-52
2022/09/27 02:25:59;;;;;;;7.20;4.30;;;;;;;13.61;93.55;97338.88;5089998;28;21678;-55
2022/09/27 02:29:07;;;;;;;8.50;4.80;;;;;;;13.35;94.31;97345.00;5092899;28;20743;-56
2022/09/27 02:32:00;;;;;;;5.32;3.88;;;;;;;13.60;93.03;97346.94;5089608;28;20067;-52
2022/09/27 02:34:47;;;;;;;6.53;3.95;;;;;;;13.64;94.30;97346.44;5107374;27;20047;-51
2022/09/27 02:37:33;;;;;;;6.95;4.72;;;;;;;13.72;91.88;97342.19;5097092;28;20062;-47
2022/09/27 02:40:18;;;;;;;7.68;5.18;;;;;;;13.62;92.72;97339.72;5094528;28;20123;-46
2022/09/27 02:43:04;;;;;;;7.60;5.13;;;;;;;13.40;93.29;97347.97;5097662;28;20400;-50
2022/09/27 02:46:15;;;;;;;28.17;4.90;;;;;;;13.31;94.67;97338.41;5095244;28;20529;-46
2022/09/27 02:49:15;;;;;;;6.07;4.10;;;;;;;13.57;95.21;97336.72;5098483;28;21264;-46
2022/09/27 02:52:28;;;;;;;5.88;4.47;;;;;;;13.28;93.93;97341.38;5091390;28;20122;-48
2022/09/27 02:55:39;;;;;;;7.47;4.88;;;;;;;13.67;94.89;97332.16;5102071;28;20047;-49
2022/09/27 02:59:14;;;;;;;5.93;4.40;;;;;;;13.64;96.09;97322.75;5091282;28;20726;-52
2022/09/27 03:02:34;;;;;;;9.27;6.07;;;;;;;13.27;95.46;97330.00;5100594;28;20510;-54
2022/09/27 03:06:07;;;;;;;8.50;5.70;;;;;;;13.15;93.75;97332.09;5090500;28;20127;-49
2022/09/27 03:08:51;;;;;;;8.65;6.10;;;;;;;13.51;92.33;97332.94;5100971;28;20251;-52
2022/09/27 03:11:36;;;;;;;8.23;5.13;;;;;;;12.80;98.30;97333.88;5095403;28;20064;-53
2022/09/27 03:14:21;;;;;;;8.52;6.10;;;;;;;12.87;96.50;97331.44;5105137;28;20048;-52
2022/09/27 03:17:16;;;;;;;8.32;4.85;;;;;;;12.90;100.00;97325.88;5096973;27;20123;-51
2022/09/27 03:20:21;;;;;;;9.68;4.70;;;;;;;13.06;97.78;97318.09;5098884;27;20054;-49
2022/09/27 03:23:25;;;;;;;8.30;5.60;;;;;;;13.71;93.70;97299.25;5092906;27;20126;-53
2022/09/27 03:26:09;;;;;;;9.55;5.88;;;;;;;13.21;95.27;97306.16;5095855;27;20066;-52
2022/09/27 03:28:54;;;;;;;10.35;5.13;;;;;;;13.70;96.83;97302.06;5091174;28;20111;-47
2022/09/27 03:31:38;;;;;;;7.55;5.15;;;;;;;13.37;96.69;97305.38;5088992;28;20062;-53
2022/09/27 03:34:45;;;;;;;5.97;4.25;;;;;;;14.02;96.63;97303.09;5092535;28;20056;-52
2022/09/27 03:37:30;;;;;;;9.50;6.65;;;;;;;13.32;95.90;97299.81;5096143;28;20043;-49
2022/09/27 03:40:15;;;;;;;10.35;6.65;;;;;;;12.89;97.48;97297.97;5093309;28;20064;-55
2022/09/27 03:43:00;;;;;;;7.07;5.28;;;;;;;13.38;99.58;97286.00;5100910;28;20113;-50
2022/09/27 03:45:46;;;;;;;9.32;5.25;;;;;;;13.08;99.80;97291.66;5083941;28;20040;-47
2022/09/27 03:48:32;;;;;;;10.65;7.15;;;;;;;13.25;97.07;97292.53;5090040;28;20127;-50
2022/09/27 03:51:17;;;;;;;9.32;6.18;;;;;;;13.09;97.49;97284.59;5105717;28;20031;-48
2022/09/27 03:54:02;;;;;;;8.20;5.65;;;;;;;12.86;100.00;97287.75;5071742;28;20568;-56
2022/09/27 03:56:47;;;;;;;8.30;6.07;;;;;;;12.91;98.64;97283.69;5100390;28;20093;-49
2022/09/27 03:59:32;;;;;;;7.85;5.47;;;;;;;13.53;98.35;97270.47;5088379;28;20398;-50
2022/09/27 04:02:49;;;;;;;9.25;6.05;;;;;;;13.75;95.39;97263.75;5083908;27;20056;-54
2022/09/27 04:05:40;;;;;;;8.80;6.10;;;;;;;13.42;96.51;97253.97;5090667;28;20039;-51
2022/09/27 04:08:29;;;;;;;9.50;6.28;;;;;;;13.27;96.35;97255.53;5096782;28;20040;-52
2022/09/27 04:11:14;;;;;;;9.20;7.00;;;;;;;13.10;97.08;97252.88;5090566;28;20110;-52
2022/09/27 04:14:03;;;;;;;10.50;7.65;;;;;;;12.73;98.96;97243.53;5093175;28;20059;-49
2022/09/27 04:16:51;;;;;;;10.73;7.22;;;;;;;12.49;100.00;97255.50;5094107;28;20032;-51
2022/09/27 04:19:47;;;;;;;10.40;7.25;;;;;;;13.26;97.21;97243.38;5087754;28;20036;-50
2022/09/27 04:22:32;;;;;;;8.20;6.45;;;;;;;13.40;98.19;97239.31;5088589;28;20490;-55
2022/09/27 04:25:16;;;;;;;11.68;7.80;;;;;;;13.22;97.71;97237.63;5097814;28;20040;-47
2022/09/27 04:28:01;;;;;;;8.82;6.35;;;;;;;13.18;98.83;97237.13;5095951;28;20047;-47
2022/09/27 04:30:47;;;;;;;11.90;7.60;;;;;;;14.06;93.61;97240.41;5088458;28;20442;-48
2022/09/27 04:34:01;;;;;;;14.07;7.97;;;;;;;14.35;91.83;97244.34;5052986;28;20044;-50
2022/09/27 04:36:50;;;;;;;12.07;8.15;;;;;;;13.66;92.00;97244.50;5045469;28;20568;-50
2022/09/27 04:39:38;;;;;;;13.52;8.48;;;;;;;14.68;92.20;97246.09;5041840;28;20037;-50
2022/09/27 04:42:25;;;;;;;22.45;6.80;;;;;;;14.48;93.87;97252.56;5044568;28;20044;-50
2022/09/27 04:45:12;;;;;;;17.98;9.75;;;;;;;14.60;88.01;97254.84;5043357;28;20497;-52
2022/09/27 04:47:56;;;;;;;15.88;10.40;;;;;;;13.59;91.77;97243.50;5069613;28;20051;-63
2022/09/27 04:50:41;;;;;;;18.15;10.98;;;;;;;12.29;100.00;97251.28;5054805;28;20618;-48
2022/09/27 04:53:26;;;;;;;17.48;12.15;;;;;;;11.80;100.00;97246.47;5044957;28;20090;-47
2022/09/27 04:56:12;;;;;;;18.67;12.27;;;;;;;11.56;100.00;97248.69;5033660;28;20059;-50
2022/09/27 04:58:57;;;;;;;20.75;12.93;;;;;;;11.55;100.00;97239.19;5043967;28;20043;-53
2022/09/27 05:01:42;;;;;;;18.80;11.65;;;;;;;11.68;100.00;97240.59;5042424;28;20051;-51
2022/09/27 05:04:35;;;;;;;21.63;13.93;;;;;;;11.51;100.00;97243.06;5062131;28;20037;-51
2022/09/27 05:07:20;;;;;;;24.15;15.68;;;;;;;11.43;100.00;97235.94;5057197;28;20045;-47
2022/09/27 05:10:10;;;;;;;23.42;15.10;;;;;;;11.47;100.00;97226.00;5061226;28;20075;-54
2022/09/27 05:12:55;;;;;;;26.98;16.55;;;;;;;11.43;100.00;97225.47;5087974;28;20070;-48
2022/09/27 05:15:40;;;;;;;27.48;16.85;;;;;;;11.17;100.00;97217.47;5088879;28;20036;-54
2022/09/27 05:18:55;;;;;;;29.35;17.58;;;;;;;11.15;100.00;97214.16;5090545;28;20104;-55
2022/09/27 05:22:07;;;;;;;26.88;16.88;;;;;;;11.32;100.00;97218.63;5082086;28;20056;-49
2022/09/27 05:24:51;;;;;;;24.90;15.23;;;;;;;11.43;100.00;97207.09;5074440;28;20181;-48
2022/09/27 05:27:36;;;;;;;24.17;14.38;;;;;;;11.50;100.00;97206.50;5087025;28;20052;-47
2022/09/27 05:30:21;;;;;;;20.90;13.77;;;;;;;11.49;100.00;97200.41;5066530;28;20127;-55
2022/09/27 05:33:10;;;;;;;22.83;13.30;;;;;;;11.44;100.00;97192.22;5068013;28;20065;-48
2022/09/27 05:36:26;;;;;;;23.77;13.52;;;;;;;11.59;100.00;97197.72;5076445;28;20045;-47
2022/09/27 05:39:11;;;;;;;21.40;14.60;;;;;;;11.59;100.00;97197.72;5076366;28;20434;-51
2022/09/27 05:41:56;;;;;;;22.33;14.45;;;;;;;11.73;100.00;97199.00;5076760;28;20044;-53
2022/09/27 05:44:41;;;;;;;22.83;14.57;;;;;;;11.69;100.00;97195.03;5061023;28;20044;-52
2022/09/27 05:47:26;;;;;;;24.58;14.95;;;;;;;11.70;100.00;97189.63;5076035;28;20090;-47
2022/09/27 05:50:11;;;;;;;22.25;13.93;;;;;;;11.63;100.00;97188.59;5078796;28;20111;-51
2022/09/27 05:52:56;;;;;;;25.63;15.07;;;;;;;11.58;100.00;97193.47;5072724;28;20045;-47
2022/09/27 05:55:42;;;;;;;24.83;14.30;;;;;;;11.64;100.00;97192.03;5076153;28;20123;-47
2022/09/27 05:58:27;;;;;;;22.00;13.73;;;;;;;11.73;100.00;97192.94;5068859;28;20315;-48
2022/09/27 06:01:26;;;;;;;21.05;13.23;;;;;;;11.82;100.00;97190.22;5103271;28;20036;-49
2022/09/27 06:04:30;;;;;;;25.70;14.18;;;;;;;11.73;100.00;97192.94;5099405;28;20041;-50
2022/09/27 06:07:33;;;;;;;26.10;14.20;;;;;;;11.75;100.00;97191.00;5104409;28;20062;-54
2022/09/27 06:10:20;;;;;;;24.17;15.00;;;;;;;11.81;100.00;97195.63;5087746;28;20036;-47
2022/09/27 06:13:10;;;;;;;27.63;14.43;;;;;;;11.90;100.00;97196.50;5073770;28;20051;-50
2022/09/27 06:15:58;;;;;;;23.80;13.48;;;;;;;11.93;100.00;97191.78;5088283;28;20112;-53
2022/09/27 06:18:43;;;;;;;24.52;14.35;;;;;;;11.84;100.00;97192.69;5102859;28;20036;-49
2022/09/27 06:21:30;;;;;;;28.02;15.15;;;;;;;11.92;100.00;97179.66;5101375;28;20043;-47
2022/09/27 06:24:18;;;;;;;35.10;18.83;;;;;;;11.88;100.00;97175.66;5091217;28;20040;-47
2022/09/27 06:27:06;;;;;;;25.80;15.55;;;;;;;11.92;100.00;97177.03;5077288;28;20483;-51
2022/09/27 06:30:07;;;;;;;31.75;17.08;;;;;;;11.83;100.00;97170.88;5093923;28;20556;-55
2022/09/27 06:33:09;;;;;;;31.02;15.57;;;;;;;11.76;100.00;97174.25;5092596;28;20036;-52
2022/09/27 06:36:02;;;;;;;31.40;17.00;;;;;;;11.67;100.00;97171.56;5072077;28;20111;-50
2022/09/27 06:39:00;;;;;;;28.85;16.60;;;;;;;11.73;100.00;97180.66;5093611;28;20492;-48
2022/09/27 06:41:55;;;;;;;30.95;17.33;;;;;;;11.69;100.00;97174.03;5092380;28;20057;-52
2022/09/27 06:45:05;;;;;;;28.90;16.73;;;;;;;11.80;100.00;97170.38;5102363;28;20131;-50
2022/09/27 06:48:12;;;;;;;25.60;15.38;;;;;;;11.93;100.00;97168.16;5090812;28;20055;-49
2022/09/27 06:51:03;;;;;;;29.27;16.45;;;;;;;11.90;100.00;97173.72;5100757;28;20143;-53
2022/09/27 06:53:48;;;;;;;30.40;17.20;;;;;;;11.67;100.00;97176.81;5097030;28;20097;-50
2022/09/27 06:56:33;;;;;;;33.13;18.70;;;;;;;11.71;100.00;97169.47;5099613;28;20036;-48
2022/09/27 07:02:40;;;;;;;;;;;;;;;11.52;100.00;97173.91;5091005;28;20360;-50
2022/09/27 07:05:57;;;;;;;45.08;22.50;;;;;;;11.30;100.00;97169.94;5090980;28;20553;-46
2022/09/27 07:09:05;;;;;;;41.80;21.30;;;;;;;11.39;100.00;97171.66;5093815;28;20035;-48
2022/09/27 07:11:50;;;;;;;40.30;19.40;;;;;;;11.48;100.00;97180.44;5099283;28;20145;-50
2022/09/27 07:14:35;;;;;;;33.05;18.55;;;;;;;11.55;100.00;97176.25;5083200;28;20056;-50
2022/09/27 07:17:24;;;;;;;30.48;17.63;;;;;;;11.98;100.00;97175.56;5095696;28;20063;-50
2022/09/27 07:20:10;;;;;;;34.03;15.57;;;;;;;11.72;100.00;97180.81;5095256;28;20861;-55
2022/09/27 07:22:55;;;;;;;25.33;13.77;;;;;;;11.64;100.00;97177.13;5088159;28;20048;-48
2022/09/27 07:25:40;;;;;;;23.27;14.18;;;;;;;11.67;100.00;97181.25;5106722;28;20033;-54
2022/09/27 07:28:25;;;;;;;22.85;13.68;;;;;;;11.72;100.00;97181.59;5088496;28;20236;-54
2022/09/27 07:31:10;;;;;;;23.35;12.77;;;;;;;11.61;100.00;97172.19;5088463;28;20040;-60
2022/09/27 07:33:55;;;;;;;21.98;11.57;;;;;;;11.75;100.00;97177.88;5084040;28;20052;-57
2022/09/27 07:36:40;;;;;;;21.13;12.07;;;;;;;11.74;100.00;97170.97;5093748;28;20461;-60
2022/09/27 07:39:25;;;;;;;19.55;12.65;;;;;;;12.04;100.00;97167.09;5098383;28;20113;-57
2022/09/27 07:42:10;;;;;;;24.42;14.80;;;;;;;11.99;100.00;97163.28;5097501;28;20031;-59
2022/09/27 07:45:05;;;;;;;24.92;12.48;;;;;;;11.72;100.00;97158.00;5093175;28;20043;-59
2022/09/27 07:48:12;;;;;;;22.90;13.73;;;;;;;11.52;100.00;97154.72;5091655;28;20146;-60
2022/09/27 07:51:23;;;;;;;27.70;15.02;;;;;;;11.44;100.00;97161.53;5066194;28;20293;-59
2022/09/27 07:54:18;;;;;;;22.80;14.13;;;;;;;11.49;100.00;97161.09;5052819;28;20135;-54
2022/09/27 07:57:21;;;;;;;22.13;14.88;;;;;;;11.56;100.00;97170.00;5068015;28;20075;-60
2022/09/27 08:00:15;;;;;;;22.80;13.88;;;;;;;11.60;100.00;97160.06;5058593;28;20074;-58
2022/09/27 08:03:06;;;;;;;18.38;12.30;;;;;;;11.74;100.00;97163.91;5055678;28;20049;-61
2022/09/27 08:05:51;;;;;;;24.17;15.05;;;;;;;11.66;100.00;97162.06;5063689;28;20044;-59
2022/09/27 08:08:36;;;;;;;29.50;16.98;;;;;;;11.45;100.00;97163.22;5060012;28;20123;-60
2022/09/27 08:11:22;;;;;;;26.20;14.95;;;;;;;11.48;100.00;97164.69;5059901;28;20146;-59
2022/09/27 08:14:09;;;;;;;24.90;15.25;;;;;;;11.57;100.00;97166.41;5060224;28;20083;-61
2022/09/27 08:16:56;;;;;;;19.98;13.38;;;;;;;11.65;100.00;97164.84;5055458;28;20108;-59
2022/09/27 08:19:48;;;;;;;24.50;14.80;;;;;;;11.68;100.00;97175.84;5075702;28;20167;-59
2022/09/27 08:22:47;;;;;;;21.35;12.95;;;;;;;11.77;100.00;97166.25;5072783;28;20365;-59
2022/09/27 08:25:43;;;;;;;24.42;15.88;;;;;;;11.74;100.00;97161.31;5055988;28;20067;-56
2022/09/27 08:29:00;;;;;;;26.45;14.68;;;;;;;11.61;100.00;97172.19;5088237;28;20051;-60
2022/09/27 08:31:50;;;;;;;25.83;14.68;;;;;;;11.74;100.00;97186.69;5091104;28;20195;-61
2022/09/27 08:34:37;;;;;;;30.60;18.35;;;;;;;11.82;100.00;97186.78;5068311;28;20043;-59
2022/09/27 08:37:22;;;;;;;24.17;13.88;;;;;;;11.98;100.00;97187.88;5093106;28;20126;-59
2022/09/27 08:40:13;;;;;;;24.08;15.27;;;;;;;11.96;100.00;97198.53;5095627;28;20036;-59
2022/09/27 08:43:05;;;;;;;20.90;12.95;;;;;;;11.88;100.00;97207.16;5083186;28;20046;-60
2022/09/27 08:45:58;;;;;;;;;;;;;;;11.99;100.00;97194.78;5087569;28;20032;-59
2022/09/27 08:48:49;;;;;;;18.58;12.13;;;;;;;12.07;100.00;97207.97;5111258;27;19932;-60
2022/09/27 08:51:35;;;;;;;19.42;10.95;;;;;;;12.10;100.00;97194.56;5095778;28;20039;-59
2022/09/27 08:54:28;;;;;;;15.77;10.27;;;;;;;12.17;100.00;97210.53;5094592;28;20131;-58
2022/09/27 08:57:13;;;;;;;13.82;9.05;;;;;;;12.21;100.00;97198.72;5089982;28;20070;-59
2022/09/27 09:00:01;;;;;;;13.35;9.32;;;;;;;12.24;100.00;97202.84;5102350;27;20060;-63
2022/09/27 09:02:47;;;;;;;9.60;6.13;;;;;;;12.17;100.00;97200.03;5107668;27;20064;-58
2022/09/27 09:05:34;;;;;;;12.05;8.07;;;;;;;12.04;100.00;97201.22;5091223;28;20032;-58
2022/09/27 09:08:34;;;;;;;10.85;7.45;;;;;;;12.18;100.00;97196.41;5077046;28;20043;-62
2022/09/27 09:15:02;;;;;;;8.57;6.22;;;;;;;12.26;100.00;97199.09;5085731;28;20052;-59
2022/09/27 09:18:12;;;;;;;10.00;6.00;;;;;;;12.44;100.00;97195.56;5056316;28;20244;-60
2022/09/27 09:21:23;;;;;;;7.95;5.50;;;;;;;12.47;100.00;97194.47;5066153;28;20066;-60
2022/09/27 09:24:14;;;;;;;9.02;6.55;;;;;;;12.42;100.00;97187.84;5053514;28;20042;-60
2022/09/27 09:27:15;;;;;;;9.18;5.68;;;;;;;12.47;100.00;97183.97;5086330;28;20140;-59
2022/09/27 09:30:19;;;;;;;7.40;4.67;;;;;;;12.51;100.00;97177.41;5057017;28;20043;-60
2022/09/27 09:33:34;;;;;;;8.20;5.25;;;;;;;12.43;100.00;97173.75;5066898;28;20306;-63
2022/09/27 09:36:27;;;;;;;7.28;4.93;;;;;;;12.44;100.00;97178.03;5070890;28;20418;-59
2022/09/27 09:39:44;;;;;;;5.82;4.13;;;;;;;12.39;100.00;97174.19;5047598;28;20055;-60
2022/09/27 09:42:37;;;;;;;5.05;3.65;;;;;;;12.40;100.00;97168.78;5061889;28;20078;-60
2022/09/27 09:45:30;;;;;;;7.28;3.85;;;;;;;12.33;100.00;97170.41;5079429;28;20048;-63
2022/09/27 09:48:41;;;;;;;7.03;3.80;;;;;;;12.32;100.00;97168.78;5079621;28;20177;-60
2022/09/27 09:51:30;;;;;;;;;;;;;;;12.23;100.00;97186.28;5081708;28;20048;-60
2022/09/27 09:54:24;;;;;;;5.47;3.08;;;;;;;11.91;100.00;97180.59;5103115;28;19923;-60
2022/09/27 09:57:18;;;;;;;3.38;1.48;;;;;;;11.28;100.00;97190.22;5101967;28;20032;-60
2022/09/27 10:00:11;;;;;;;1.13;0.77;;;;;;;10.72;100.00;97194.53;5088972;28;20048;-61
2022/09/27 10:03:02;;;;;;;4.47;0.85;;;;;;;10.70;100.00;97200.88;5092412;28;20340;-59
2022/09/27 10:05:48;;;;;;;1.70;1.00;;;;;;;10.82;100.00;97199.72;5089837;28;20135;-59
2022/09/27 10:08:33;;;;;;;2.00;0.90;;;;;;;10.91;100.00;97207.69;5088395;28;20043;-62
2022/09/27 10:11:43;;;;;;;1.40;0.70;;;;;;;10.95;100.00;97199.38;5084605;28;20450;-60
2022/09/27 10:14:34;;;;;;;2.50;0.90;;;;;;;11.06;100.00;97194.91;5095879;28;20126;-60
2022/09/27 10:17:27;;;;;;;4.00;1.08;;;;;;;11.08;100.00;97195.59;5090372;28;20356;-60
2022/09/27 10:20:34;;;;;;;1.92;1.10;;;;;;;11.34;100.00;97203.56;5102448;27;20040;-60
2022/09/27 10:23:21;;;;;;;5.00;2.35;;;;;;;11.46;100.00;97196.31;5100462;28;20047;-50
2022/09/27 10:26:25;;;;;;;4.53;1.70;;;;;;;11.95;100.00;97205.56;5105156;28;20076;-53
2022/09/27 10:29:29;;;;;;;1.88;1.10;;;;;;;11.49;100.00;97203.03;5082114;28;20640;-49
2022/09/27 10:32:23;;;;;;;1.65;1.08;;;;;;;11.43;100.00;97207.09;5106603;28;20104;-54
2022/09/27 10:35:28;;;;;;;3.08;1.08;;;;;;;11.37;100.00;97202.47;5094409;28;20083;-58
2022/09/27 10:38:30;;;;;;;2.13;1.08;;;;;;;11.32;100.00;97200.28;5101015;27;20088;-55
2022/09/27 10:41:32;;;;;;;2.20;1.10;;;;;;;11.27;100.00;97193.81;5111906;27;20518;-54
2022/09/27 10:44:31;;;;;;;1.70;0.88;;;;;;;11.32;100.00;97204.69;5099952;28;20139;-59
2022/09/27 10:47:35;;;;;;;2.65;1.10;;;;;;;11.24;100.00;97205.44;5109069;27;20056;-52
2022/09/27 10:50:29;;;;;;;2.58;1.40;;;;;;;11.32;100.00;97204.69;5107992;28;20043;-49
2022/09/27 10:53:20;;;;;;;1.98;1.30;;;;;;;11.54;100.00;97200.81;5088455;28;20507;-58
2022/09/27 10:56:34;;;;;;;3.05;1.08;;;;;;;11.74;100.00;97198.03;5101907;27;20072;-57
2022/09/27 10:59:20;;;;;;;2.60;1.17;;;;;;;11.77;100.00;97199.50;5103654;27;20068;-54
2022/09/27 11:02:24;;;;;;;2.60;1.10;;;;;;;11.89;100.00;97192.25;5091012;28;20631;-47
2022/09/27 11:05:28;;;;;;;2.33;1.17;;;;;;;11.94;100.00;97188.19;5106571;27;20044;-52
2022/09/27 11:08:18;;;;;;;2.08;1.23;;;;;;;12.35;100.00;97191.25;5090740;28;20131;-55
2022/09/27 11:11:18;;;;;;;2.63;1.42;;;;;;;12.91;100.00;97183.00;5092636;28;20043;-54
2022/09/27 11:14:16;;;;;;;3.15;1.55;;;;;;;13.11;100.00;97188.78;5092897;28;20383;-52
2022/09/27 11:17:16;;;;;;;2.50;1.40;;;;;;;12.94;100.00;97191.38;5101033;27;20064;-56
2022/09/27 11:20:30;;;;;;;2.42;1.20;;;;;;;13.19;100.00;97190.63;5089275;28;20040;-53
2022/09/27 11:23:41;;;;;;;3.03;1.42;;;;;;;14.07;100.00;97186.78;5087886;28;20039;-52
2022/09/27 11:26:35;;;;;;;2.88;1.20;;;;;;;14.32;97.23;97182.28;5095284;28;20058;-51
2022/09/27 11:29:33;;;;;;;1.30;0.98;;;;;;;13.95;97.90;97179.22;5090091;28;20060;-55
2022/09/27 11:32:40;;;;;;;3.35;1.13;;;;;;;13.86;96.16;97182.81;5085177;28;20556;-53
2022/09/27 11:35:40;;;;;;;3.22;1.10;;;;;;;13.72;99.12;97179.06;5084396;28;20050;-53
2022/09/27 11:38:30;;;;;;;1.52;0.85;;;;;;;13.55;99.36;97185.13;5066876;28;20135;-55
2022/09/27 11:41:56;;;;;;;2.20;1.15;;;;;;;13.03;100.00;97175.63;5070205;28;20075;-50
2022/09/27 11:44:57;;;;;;;1.63;1.10;;;;;;;13.17;100.00;97174.19;5086846;28;20054;-55
2022/09/27 11:48:06;;;;;;;1.50;0.90;;;;;;;13.01;100.00;97165.28;5072426;28;20085;-52
2022/09/27 11:51:11;;;;;;;1.92;0.82;;;;;;;13.65;100.00;97163.91;5070786;28;20047;-55
2022/09/27 11:54:05;;;;;;;2.70;1.00;;;;;;;13.07;99.42;97163.81;5084624;28;20039;-55
2022/09/27 11:57:21;;;;;;;2.33;1.17;;;;;;;13.16;100.00;97159.38;5042347;28;20407;-53
2022/09/27 12:00:23;;;;;;;2.10;1.27;;;;;;;13.13;100.00;97170.22;5085257;28;20052;-57
2022/09/27 12:03:58;;;;;;;3.83;2.25;;;;;;;13.00;100.00;97173.31;5083834;28;20062;-55
2022/09/27 12:06:44;;;;;;;1.65;0.95;;;;;;;12.65;100.00;97174.19;5069431;28;20376;-53
2022/09/27 12:10:01;;;;;;;1.73;1.10;;;;;;;12.61;100.00;97172.03;5076702;28;20047;-61
2022/09/27 12:12:55;;;;;;;2.03;1.23;;;;;;;12.63;100.00;97168.25;5086710;28;20151;-52
2022/09/27 12:15:44;;;;;;;3.10;1.25;;;;;;;12.55;100.00;97168.25;5090037;28;20036;-54
2022/09/27 12:18:40;;;;;;;1.63;1.02;;;;;;;12.86;100.00;97183.44;5095494;28;20044;-55
2022/09/27 12:21:41;;;;;;;1.50;0.85;;;;;;;13.08;100.00;97177.78;5097998;28;20117;-52
2022/09/27 12:24:27;;;;;;;2.92;1.15;;;;;;;13.14;100.00;97183.22;5086369;28;20430;-50
2022/09/27 12:27:45;;;;;;;1.90;1.40;;;;;;;13.50;100.00;97182.13;5087819;28;20039;-62
2022/09/27 12:30:45;;;;;;;1.90;0.80;;;;;;;13.41;100.00;97185.75;5095349;28;20106;-58
2022/09/27 12:33:50;;;;;;;1.65;1.10;;;;;;;13.68;99.60;97191.72;5099887;28;20036;-58
2022/09/27 12:36:42;;;;;;;2.03;1.13;;;;;;;13.74;100.00;97198.13;5080393;28;20132;-58
2022/09/27 12:39:36;;;;;;;1.50;0.82;;;;;;;13.53;96.99;97202.88;5086714;28;20051;-64
2022/09/27 12:42:43;;;;;;;1.63;1.10;;;;;;;13.35;97.76;97202.97;5096216;28;20051;-58
2022/09/27 12:46:06;;;;;;;1.73;1.05;;;;;;;13.24;99.72;97203.28;5090382;28;20126;-60
2022/09/27 12:49:11;;;;;;;3.78;0.98;;;;;;;13.13;98.72;97205.25;5071244;28;20081;-59
2022/09/27 12:52:24;;;;;;;2.17;1.02;;;;;;;13.04;99.40;97203.56;5095648;28;20043;-61
2022/09/27 12:55:22;;;;;;;1.95;1.05;;;;;;;13.03;100.00;97207.16;5103895;28;20050;-61
2022/09/27 12:58:28;;;;;;;2.33;1.17;;;;;;;12.88;100.00;97201.69;5070664;28;20078;-60
2022/09/27 13:01:45;;;;;;;1.67;0.82;;;;;;;13.04;100.00;97199.13;5080630;28;20517;-60
2022/09/27 13:04:49;;;;;;;1.67;1.17;;;;;;;13.08;100.00;97204.06;5086329;28;20564;-60
2022/09/27 13:07:47;;;;;;;1.80;1.02;;;;;;;13.28;100.00;97202.00;5065189;28;20062;-58
2022/09/27 13:10:46;;;;;;;2.05;1.15;;;;;;;13.17;100.00;97206.56;5095300;28;20067;-59
2022/09/27 13:13:53;;;;;;;1.30;1.00;;;;;;;13.11;100.00;97212.47;5102629;27;20069;-60
2022/09/27 13:16:44;;;;;;;2.60;1.02;;;;;;;13.28;100.00;97208.09;5100935;28;20059;-59
2022/09/27 13:19:34;;;;;;;2.25;1.10;;;;;;;13.37;98.60;97208.06;5104080;28;20127;-59
2022/09/27 13:22:26;;;;;;;2.58;1.00;;;;;;;13.30;99.38;97205.28;5088417;28;20055;-59
2022/09/27 13:25:50;;;;;;;1.80;0.85;;;;;;;13.39;99.08;97208.75;5101192;27;20135;-63
2022/09/27 13:28:49;;;;;;;1.98;1.40;;;;;;;13.45;97.02;97207.28;5098775;27;20090;-61
2022/09/27 13:31:58;;;;;;;2.47;1.40;;;;;;;13.45;97.10;97202.81;5085569;28;20051;-60
2022/09/27 13:34:56;;;;;;;2.78;1.23;;;;;;;13.25;98.40;97197.84;5103163;28;20077;-60
2022/09/27 13:37:58;;;;;;;2.03;1.20;;;;;;;13.24;97.88;97204.09;5091032;28;20036;-62
2022/09/27 13:40:52;;;;;;;2.45;0.95;;;;;;;13.31;99.03;97214.81;5088294;28;20036;-60
2022/09/27 13:44:05;;;;;;;1.83;0.93;;;;;;;13.15;97.55;97220.84;5089049;28;20056;-60